Time;durP1;ratioP1;P1;durP2;ratioP2;P2;SDS_P1;SDS_P2;PMS_P1;PMS_P2;Temp;Humidity;BMP_temperature;BMP_pressure;BME280_temperature;BME280_humidity;BME280_pressure;Samples;Min_cycle;Max_cycle;Signal;HPM_P1;HPM_P2
2021/09/13 00:01:32;;;;;;;8.53;5.50;;;15.20;99.90;;;;;;4995894;28;20290;-50
2021/09/13 00:03:59;;;;;;;5.43;4.87;;;15.20;99.90;;;;;;5000048;28;20737;-50
2021/09/13 00:06:26;;;;;;;10.37;5.80;;;15.20;99.90;;;;;;4996885;28;20199;-50
2021/09/13 00:08:53;;;;;;;7.13;5.37;;;15.20;99.90;;;;;;4999481;28;20623;-50
2021/09/13 00:11:20;;;;;;;7.07;5.37;;;15.10;99.90;;;;;;5000603;28;20314;-51
2021/09/13 00:13:49;;;;;;;7.40;6.00;;;15.20;99.90;;;;;;4998643;28;20194;-50
2021/09/13 00:16:17;;;;;;;6.17;5.57;;;15.20;99.90;;;;;;5005910;28;20265;-50
2021/09/13 00:18:43;;;;;;;7.30;5.87;;;15.10;99.90;;;;;;4998305;28;20201;-50
2021/09/13 00:21:10;;;;;;;6.37;5.77;;;15.10;99.90;;;;;;4999049;28;20298;-51
2021/09/13 00:23:37;;;;;;;7.23;5.80;;;15.10;99.90;;;;;;4998938;28;20207;-51
2021/09/13 00:26:04;;;;;;;6.97;5.93;;;15.10;99.90;;;;;;5004974;28;20306;-50
2021/09/13 00:28:31;;;;;;;8.17;6.40;;;15.10;99.90;;;;;;5007387;28;20242;-51
2021/09/13 00:30:58;;;;;;;8.40;5.90;;;15.00;99.90;;;;;;5001976;28;20310;-50
2021/09/13 00:33:24;;;;;;;6.20;5.60;;;15.00;99.90;;;;;;5002281;28;20291;-50
2021/09/13 00:35:53;;;;;;;7.50;5.77;;;15.00;99.90;;;;;;4997658;28;20206;-50
2021/09/13 00:38:19;;;;;;;6.63;5.70;;;15.10;99.90;;;;;;5018972;28;20552;-50
2021/09/13 00:40:46;;;;;;;6.40;5.63;;;15.00;99.90;;;;;;5002839;28;20676;-51
2021/09/13 00:43:13;;;;;;;8.33;6.17;;;15.00;99.90;;;;;;5007462;28;20296;-51
2021/09/13 00:45:40;;;;;;;6.80;6.10;;;15.00;99.90;;;;;;5011893;28;20666;-50
2021/09/13 00:48:07;;;;;;;7.33;5.90;;;15.00;99.90;;;;;;5004914;28;20750;-50
2021/09/13 00:50:34;;;;;;;9.33;6.20;;;14.90;99.90;;;;;;5005160;28;20569;-50
2021/09/13 00:53:01;;;;;;;7.87;5.83;;;14.90;99.90;;;;;;5001251;28;20199;-50
2021/09/13 00:55:38;;;;;;;8.00;5.73;;;14.90;99.90;;;;;;5000309;28;20203;-50
2021/09/13 00:58:07;;;;;;;7.30;6.17;;;14.90;99.90;;;;;;5000319;28;20297;-50
2021/09/13 01:00:35;;;;;;;6.47;5.60;;;14.90;99.90;;;;;;5002796;28;20248;-50
2021/09/13 01:03:02;;;;;;;9.67;5.90;;;14.90;99.90;;;;;;5003645;28;20305;-50
2021/09/13 01:05:29;;;;;;;7.20;6.00;;;14.90;99.90;;;;;;5004165;28;20504;-50
2021/09/13 01:07:56;;;;;;;5.80;5.20;;;14.90;99.90;;;;;;5002706;28;20293;-51
2021/09/13 01:10:24;;;;;;;6.00;5.27;;;14.90;99.90;;;;;;5002934;28;20333;-51
2021/09/13 01:12:50;;;;;;;6.13;4.80;;;14.90;99.90;;;;;;5003967;28;20641;-50
2021/09/13 01:15:17;;;;;;;5.80;5.07;;;14.90;99.90;;;;;;5001500;28;20316;-50
2021/09/13 01:17:45;;;;;;;5.53;4.97;;;14.80;99.90;;;;;;5000785;28;20201;-50
2021/09/13 01:20:12;;;;;;;6.23;4.87;;;14.70;99.90;;;;;;5002134;28;20214;-50
2021/09/13 01:22:41;;;;;;;6.77;5.13;;;14.60;99.90;;;;;;4998785;28;20699;-50
2021/09/13 01:25:08;;;;;;;6.10;4.77;;;14.50;99.90;;;;;;5000884;28;20204;-50
2021/09/13 01:27:36;;;;;;;7.93;5.10;;;14.50;99.90;;;;;;5007688;28;20242;-50
2021/09/13 01:30:06;;;;;;;5.37;4.77;;;14.60;99.90;;;;;;5005540;28;20230;-50
2021/09/13 01:32:33;;;;;;;4.53;3.60;;;14.60;99.90;;;;;;4995749;28;20324;-50
2021/09/13 01:35:00;;;;;;;3.80;3.40;;;14.60;99.90;;;;;;5000452;28;20297;-50
2021/09/13 01:37:27;;;;;;;2.60;2.40;;;14.60;99.90;;;;;;5005270;28;20660;-50
2021/09/13 01:39:54;;;;;;;2.40;2.20;;;14.50;99.90;;;;;;5008261;28;20231;-50
2021/09/13 01:42:20;;;;;;;2.70;2.17;;;14.60;99.90;;;;;;4999631;28;20254;-51
2021/09/13 01:44:47;;;;;;;3.23;2.43;;;14.60;99.90;;;;;;5002069;28;20521;-51
2021/09/13 01:47:14;;;;;;;2.93;2.63;;;14.50;99.90;;;;;;5003695;28;20349;-50
2021/09/13 01:49:41;;;;;;;3.23;2.90;;;14.50;99.90;;;;;;4994565;28;20296;-50
2021/09/13 01:52:08;;;;;;;2.90;2.60;;;14.50;99.90;;;;;;5003956;28;20303;-50
2021/09/13 01:54:35;;;;;;;3.10;2.80;;;14.40;99.90;;;;;;4999876;28;20297;-50
2021/09/13 01:57:01;;;;;;;5.20;3.10;;;14.30;99.90;;;;;;5000564;28;20711;-50
2021/09/13 01:59:28;;;;;;;3.40;2.90;;;14.40;99.90;;;;;;5000186;28;20245;-51
2021/09/13 02:01:55;;;;;;;4.00;3.40;;;14.40;99.90;;;;;;5001244;28;20651;-50
2021/09/13 02:04:22;;;;;;;5.53;3.20;;;14.40;99.90;;;;;;5001370;28;20647;-50
2021/09/13 02:06:49;;;;;;;3.40;3.10;;;14.30;99.90;;;;;;5003191;28;20248;-51
2021/09/13 02:09:16;;;;;;;3.03;2.73;;;14.30;99.90;;;;;;4999121;28;20203;-51
2021/09/13 02:11:43;;;;;;;2.63;2.43;;;14.30;99.90;;;;;;5000951;28;20297;-50
2021/09/13 02:14:10;;;;;;;3.70;2.97;;;14.40;99.90;;;;;;4998786;28;20237;-51
2021/09/13 02:16:36;;;;;;;3.03;2.73;;;14.30;99.90;;;;;;5000627;28;20232;-51
2021/09/13 02:19:03;;;;;;;3.77;3.13;;;14.20;99.90;;;;;;5002634;28;20264;-51
2021/09/13 02:21:30;;;;;;;3.67;3.27;;;14.20;99.90;;;;;;5001102;28;20229;-51
2021/09/13 02:23:57;;;;;;;3.33;2.87;;;14.20;99.90;;;;;;5001276;28;20203;-50
2021/09/13 02:26:24;;;;;;;3.53;2.90;;;14.30;99.90;;;;;;5000892;28;20283;-51
2021/09/13 02:28:50;;;;;;;3.60;3.30;;;14.30;99.90;;;;;;5003985;28;20281;-50
2021/09/13 02:31:17;;;;;;;4.40;3.50;;;14.20;99.90;;;;;;4998102;28;20257;-50
2021/09/13 02:33:44;;;;;;;4.10;3.43;;;14.20;99.90;;;;;;4994607;28;20199;-50
2021/09/13 02:36:11;;;;;;;4.33;3.60;;;14.10;99.90;;;;;;4999325;28;20202;-51
2021/09/13 02:38:38;;;;;;;4.00;3.47;;;14.20;99.90;;;;;;5003916;28;20315;-50
2021/09/13 02:41:05;;;;;;;4.63;3.50;;;14.10;99.90;;;;;;5000187;28;20293;-50
2021/09/13 02:43:32;;;;;;;3.87;3.47;;;14.10;99.90;;;;;;5001494;28;20346;-51
2021/09/13 02:45:58;;;;;;;4.53;4.13;;;14.10;99.90;;;;;;5002780;28;20240;-51
2021/09/13 02:48:25;;;;;;;3.90;3.50;;;14.10;99.90;;;;;;5002756;28;20200;-50
2021/09/13 02:50:52;;;;;;;4.23;3.83;;;14.10;99.90;;;;;;5001384;28;20310;-50
2021/09/13 02:53:19;;;;;;;4.00;3.60;;;14.10;99.90;;;;;;5010324;28;20283;-50
2021/09/13 02:55:46;;;;;;;4.73;3.77;;;14.10;99.90;;;;;;5000003;28;20614;-50
2021/09/13 02:58:12;;;;;;;4.70;3.33;;;14.10;99.90;;;;;;4999598;28;20641;-50
2021/09/13 03:00:39;;;;;;;4.73;3.53;;;14.10;99.90;;;;;;4999639;28;20330;-50
2021/09/13 03:03:06;;;;;;;4.43;3.77;;;14.10;99.90;;;;;;5001755;28;20209;-50
2021/09/13 03:05:33;;;;;;;4.43;3.27;;;14.10;99.90;;;;;;5001003;28;20216;-50
2021/09/13 03:08:00;;;;;;;3.60;3.30;;;14.10;99.90;;;;;;5000642;28;20285;-51
2021/09/13 03:10:27;;;;;;;4.50;3.70;;;14.00;99.90;;;;;;4999560;28;20228;-50
2021/09/13 03:12:54;;;;;;;4.43;3.60;;;13.80;99.90;;;;;;4999878;28;20693;-50
2021/09/13 03:15:21;;;;;;;3.37;2.80;;;13.80;99.90;;;;;;5002106;28;20850;-50
2021/09/13 03:17:47;;;;;;;3.40;2.63;;;13.70;99.90;;;;;;4999866;28;20684;-50
2021/09/13 03:20:15;;;;;;;2.97;2.73;;;13.80;99.90;;;;;;5002938;28;20724;-51
2021/09/13 03:22:42;;;;;;;3.00;2.70;;;13.90;99.90;;;;;;5009376;28;20564;-51
2021/09/13 03:25:09;;;;;;;3.00;2.73;;;13.70;99.90;;;;;;4990447;28;20577;-51
2021/09/13 03:27:36;;;;;;;3.57;2.60;;;13.70;99.90;;;;;;4997750;28;20735;-51
2021/09/13 03:30:04;;;;;;;3.10;2.63;;;13.70;99.90;;;;;;4998950;28;20336;-50
2021/09/13 03:32:31;;;;;;;2.60;2.40;;;13.80;99.90;;;;;;5002923;28;20239;-51
2021/09/13 03:34:58;;;;;;;2.67;2.37;;;13.80;99.90;;;;;;4994275;28;20649;-51
2021/09/13 03:37:25;;;;;;;2.60;2.40;;;13.80;99.90;;;;;;4997899;28;20258;-51
2021/09/13 03:39:52;;;;;;;3.10;2.50;;;13.70;99.90;;;;;;4997930;28;20251;-51
2021/09/13 03:42:18;;;;;;;4.20;2.60;;;13.60;99.90;;;;;;5000281;28;20291;-51
2021/09/13 03:44:45;;;;;;;3.03;2.73;;;13.60;99.90;;;;;;5002824;28;20753;-51
2021/09/13 03:47:12;;;;;;;3.80;3.03;;;13.60;99.90;;;;;;5002116;28;20301;-51
2021/09/13 03:49:39;;;;;;;3.20;2.90;;;13.70;99.90;;;;;;5000808;28;20236;-51
2021/09/13 03:52:08;;;;;;;4.17;3.47;;;13.60;99.90;;;;;;5008340;28;20289;-51
2021/09/13 03:54:36;;;;;;;3.20;2.87;;;13.70;99.90;;;;;;5000682;28;20275;-50
2021/09/13 03:57:03;;;;;;;3.53;3.23;;;13.60;99.90;;;;;;5001836;28;20298;-51
2021/09/13 03:59:31;;;;;;;4.00;3.00;;;13.60;99.90;;;;;;4997480;28;20288;-51
2021/09/13 04:01:58;;;;;;;5.13;2.93;;;13.70;99.90;;;;;;5001899;28;20692;-51
2021/09/13 04:04:28;;;;;;;3.70;3.20;;;13.60;99.90;;;;;;5007145;28;20207;-51
2021/09/13 04:12:13;;;;;;;2.27;2.07;;;13.60;99.90;;;;;;5004017;28;20308;-51
2021/09/13 04:14:40;;;;;;;2.50;2.27;;;13.50;99.90;;;;;;4999814;28;20313;-50
2021/09/13 04:17:07;;;;;;;2.20;2.00;;;13.50;99.90;;;;;;5000358;28;20249;-49
2021/09/13 04:19:33;;;;;;;2.87;2.07;;;13.50;99.90;;;;;;5002013;28;20287;-50
2021/09/13 04:22:00;;;;;;;2.83;2.57;;;13.50;99.90;;;;;;4996013;28;20289;-50
2021/09/13 04:24:27;;;;;;;2.50;2.30;;;13.50;99.90;;;;;;5000970;28;20302;-50
2021/09/13 04:26:54;;;;;;;2.50;2.30;;;13.40;99.90;;;;;;5002073;28;20882;-50
2021/09/13 04:29:21;;;;;;;3.37;2.43;;;13.50;99.90;;;;;;5006924;28;20745;-50
2021/09/13 04:31:47;;;;;;;2.67;2.47;;;13.50;99.90;;;;;;5004847;28;20295;-50
2021/09/13 04:34:14;;;;;;;3.00;2.40;;;13.40;99.90;;;;;;5003320;28;20202;-49
2021/09/13 04:36:41;;;;;;;3.00;2.37;;;13.40;99.90;;;;;;5001227;28;20232;-50
2021/09/13 04:39:08;;;;;;;3.93;2.73;;;13.40;99.90;;;;;;4998035;28;20356;-50
2021/09/13 04:41:36;;;;;;;3.10;2.80;;;13.40;99.90;;;;;;5002864;28;20296;-49
2021/09/13 04:44:03;;;;;;;3.30;2.90;;;13.40;99.90;;;;;;5008570;28;20666;-50
2021/09/13 04:46:30;;;;;;;5.77;3.07;;;13.50;99.90;;;;;;5000114;28;20290;-53
2021/09/13 04:48:57;;;;;;;3.77;3.37;;;13.40;99.90;;;;;;4997856;28;20203;-51
2021/09/13 04:51:24;;;;;;;3.80;3.40;;;13.40;99.90;;;;;;5003969;28;20302;-51
2021/09/13 04:53:50;;;;;;;5.17;3.00;;;13.30;99.90;;;;;;5002553;28;20393;-50
2021/09/13 04:56:17;;;;;;;3.23;2.93;;;13.20;99.90;;;;;;5001915;28;20329;-50
2021/09/13 04:58:44;;;;;;;3.20;2.90;;;13.20;99.90;;;;;;5005766;28;20311;-50
2021/09/13 05:01:11;;;;;;;3.67;3.27;;;13.30;99.90;;;;;;4999596;28;20403;-50
2021/09/13 05:03:38;;;;;;;3.30;3.00;;;13.30;99.90;;;;;;5002957;28;20282;-50
2021/09/13 05:06:05;;;;;;;3.30;3.00;;;13.20;99.90;;;;;;5003497;28;20213;-50
2021/09/13 05:08:32;;;;;;;3.30;2.57;;;13.20;99.90;;;;;;4999648;28;20320;-50
2021/09/13 05:10:59;;;;;;;3.83;2.90;;;13.10;99.90;;;;;;5002010;28;20207;-50
2021/09/13 05:13:26;;;;;;;3.10;2.90;;;13.10;99.90;;;;;;5009679;28;20272;-50
2021/09/13 05:15:53;;;;;;;2.80;2.60;;;13.10;99.90;;;;;;5003813;28;20285;-51
2021/09/13 05:18:19;;;;;;;3.33;3.03;;;13.20;99.90;;;;;;5006220;28;20225;-51
2021/09/13 05:20:46;;;;;;;3.07;2.80;;;13.20;99.90;;;;;;4994988;28;20379;-50
2021/09/13 05:23:13;;;;;;;2.90;2.70;;;13.20;99.90;;;;;;5001625;28;20203;-50
2021/09/13 05:25:40;;;;;;;3.50;3.20;;;13.10;99.90;;;;;;4999939;28;20287;-49
2021/09/13 05:28:07;;;;;;;3.20;3.00;;;13.20;99.90;;;;;;5004554;28;20307;-52
2021/09/13 05:30:34;;;;;;;3.20;2.90;;;13.20;99.90;;;;;;5000709;28;20204;-50
2021/09/13 05:33:00;;;;;;;3.37;3.07;;;13.20;99.90;;;;;;5001632;28;20238;-50
2021/09/13 05:35:27;;;;;;;3.23;2.93;;;13.20;99.90;;;;;;5004000;28;20339;-49
2021/09/13 05:37:54;;;;;;;4.47;3.70;;;13.20;99.90;;;;;;4996561;28;20287;-53
2021/09/13 05:40:21;;;;;;;3.53;3.23;;;13.30;99.90;;;;;;5004837;28;20233;-51
2021/09/13 05:42:47;;;;;;;3.57;3.27;;;13.30;99.90;;;;;;5000707;28;20240;-51
2021/09/13 05:45:14;;;;;;;3.43;3.13;;;13.30;99.90;;;;;;4996262;28;20203;-50
2021/09/13 05:47:41;;;;;;;3.30;2.97;;;13.30;99.90;;;;;;5003461;28;20290;-51
2021/09/13 05:50:08;;;;;;;3.20;2.90;;;13.40;99.90;;;;;;5004413;28;20252;-51
2021/09/13 05:52:35;;;;;;;3.30;3.00;;;13.30;99.90;;;;;;5000967;28;20312;-50
2021/09/13 05:55:03;;;;;;;3.67;3.30;;;13.30;99.90;;;;;;4997486;28;20626;-51
2021/09/13 05:57:30;;;;;;;4.37;3.80;;;13.30;99.90;;;;;;5000946;28;20251;-49
2021/09/13 05:59:57;;;;;;;3.73;3.33;;;13.40;99.90;;;;;;4992717;28;20242;-50
2021/09/13 06:02:23;;;;;;;3.50;3.20;;;13.40;99.90;;;;;;4991797;28;20239;-50
2021/09/13 06:04:50;;;;;;;3.93;3.50;;;13.30;99.90;;;;;;4996078;28;20211;-50
2021/09/13 06:07:18;;;;;;;3.90;3.50;;;13.30;99.90;;;;;;4994609;28;20285;-50
2021/09/13 06:09:44;;;;;;;4.37;3.97;;;13.30;99.90;;;;;;4997262;28;20609;-49
2021/09/13 06:12:14;;;;;;;3.50;3.20;;;13.40;99.90;;;;;;4995788;28;20219;-50
2021/09/13 06:14:42;;;;;;;4.50;3.07;;;13.40;99.90;;;;;;4997054;28;20294;-50
2021/09/13 06:17:10;;;;;;;4.53;3.23;;;13.50;99.90;;;;;;4999814;28;20653;-50
2021/09/13 06:19:38;;;;;;;3.63;3.33;;;13.50;99.90;;;;;;4992227;28;20212;-49
2021/09/13 06:22:05;;;;;;;3.97;3.33;;;13.50;99.90;;;;;;4996009;28;20295;-50
2021/09/13 06:24:31;;;;;;;4.97;3.90;;;13.60;99.90;;;;;;4991751;28;20623;-50
2021/09/13 06:26:58;;;;;;;6.23;4.03;;;13.50;99.90;;;;;;4997481;28;20203;-50
2021/09/13 06:29:25;;;;;;;4.63;4.17;;;13.50;99.90;;;;;;4998550;28;20280;-51
2021/09/13 06:31:52;;;;;;;4.87;4.10;;;13.60;99.90;;;;;;4999962;28;20362;-51
2021/09/13 06:34:19;;;;;;;8.70;4.83;;;13.70;99.90;;;;;;4998384;28;20661;-51
2021/09/13 06:36:46;;;;;;;7.90;5.80;;;13.80;99.90;;;;;;4998733;28;20349;-50
2021/09/13 06:39:13;;;;;;;8.97;5.63;;;13.90;99.90;;;;;;4998561;28;20754;-50
2021/09/13 06:41:40;;;;;;;9.23;6.80;;;13.90;99.90;;;;;;5000732;28;20662;-51
2021/09/13 06:44:06;;;;;;;10.30;6.70;;;14.00;99.90;;;;;;4996025;28;20236;-50
2021/09/13 06:49:01;;;;;;;10.97;7.53;;;14.20;99.90;;;;;;4997330;28;20301;-50
2021/09/13 06:51:27;;;;;;;10.70;7.10;;;14.30;99.90;;;;;;4995425;28;21682;-51
2021/09/13 06:53:54;;;;;;;10.17;6.67;;;14.40;99.90;;;;;;4994075;28;20217;-50
2021/09/13 06:56:21;;;;;;;10.33;7.43;;;14.50;99.90;;;;;;4999105;28;20201;-50
2021/09/13 06:58:48;;;;;;;10.03;7.47;;;14.60;99.90;;;;;;4994989;28;20288;-50
2021/09/13 07:01:15;;;;;;;10.03;7.17;;;14.60;99.90;;;;;;4999795;28;20223;-50
2021/09/13 07:03:42;;;;;;;9.97;6.73;;;14.70;99.90;;;;;;4995877;28;20242;-51
2021/09/13 07:06:09;;;;;;;10.87;6.87;;;14.70;99.90;;;;;;4995010;28;20223;-50
2021/09/13 07:08:36;;;;;;;13.30;8.23;;;14.70;99.90;;;;;;4998476;28;20646;-50
2021/09/13 07:11:05;;;;;;;12.07;7.87;;;14.90;99.90;;;;;;4996604;28;20292;-50
2021/09/13 07:13:33;;;;;;;9.77;7.73;;;14.90;99.90;;;;;;4994820;28;20225;-51
2021/09/13 07:16:05;;;;;;;11.67;7.47;;;15.10;99.90;;;;;;4995847;28;20233;-51
2021/09/13 07:18:32;;;;;;;9.53;6.63;;;15.20;99.90;;;;;;4992606;28;20237;-51
2021/09/13 07:20:59;;;;;;;9.80;6.67;;;15.40;99.90;;;;;;5000481;28;20272;-50
2021/09/13 07:23:25;;;;;;;10.50;6.63;;;15.50;99.90;;;;;;5003485;28;20289;-49
2021/09/13 07:25:52;;;;;;;9.63;6.60;;;15.60;99.90;;;;;;4993492;28;20214;-53
2021/09/13 07:28:20;;;;;;;12.10;6.17;;;15.70;99.90;;;;;;4994814;28;20234;-52
2021/09/13 07:30:48;;;;;;;8.10;5.97;;;15.90;99.90;;;;;;4998749;28;20613;-52
2021/09/13 07:33:14;;;;;;;11.70;5.80;;;15.90;99.90;;;;;;5000432;28;20266;-53
2021/09/13 07:35:41;;;;;;;7.50;5.23;;;16.00;99.90;;;;;;5001279;28;20744;-52
2021/09/13 07:38:08;;;;;;;8.17;4.70;;;16.10;99.90;;;;;;5002300;28;20285;-52
2021/09/13 07:40:35;;;;;;;8.20;4.50;;;16.10;99.90;;;;;;5003833;28;20886;-52
2021/09/13 07:43:03;;;;;;;8.57;5.00;;;16.30;99.90;;;;;;5000274;28;20239;-52
2021/09/13 07:45:30;;;;;;;6.17;4.67;;;16.50;99.90;;;;;;5001660;28;20673;-51
2021/09/13 07:47:57;;;;;;;8.87;5.50;;;16.60;99.90;;;;;;4997224;28;20204;-52
2021/09/13 07:50:24;;;;;;;7.80;4.33;;;16.70;99.90;;;;;;4996044;28;20307;-52
2021/09/13 07:52:51;;;;;;;6.87;4.30;;;16.90;99.90;;;;;;5010924;28;20302;-51
2021/09/13 07:55:17;;;;;;;9.03;4.53;;;17.20;1.00;;;;;;4998449;28;20256;-52
2021/09/13 07:57:44;;;;;;;9.13;4.13;;;17.00;1.00;;;;;;4999131;28;20248;-51
2021/09/13 08:00:16;;;;;;;7.80;4.10;;;17.00;1.00;;;;;;4999254;28;20219;-52
2021/09/13 08:02:43;;;;;;;12.07;4.03;;;17.20;74.00;;;;;;4993286;28;20290;-52
2021/09/13 08:05:11;;;;;;;6.67;3.80;;;17.50;1.00;;;;;;4998737;28;20311;-52
2021/09/13 08:07:38;;;;;;;8.93;3.77;;;17.70;1.00;;;;;;5000459;28;20634;-52
2021/09/13 08:10:05;;;;;;;5.40;3.03;;;17.80;1.00;;;;;;4997670;28;20277;-52
2021/09/13 08:12:32;;;;;;;6.30;2.50;;;17.90;1.00;;;;;;5003005;28;20209;-52
2021/09/13 08:14:59;;;;;;;8.67;3.50;;;17.90;1.00;;;;;;5004561;28;20333;-52
2021/09/13 08:17:26;;;;;;;4.80;3.13;;;18.10;99.90;;;;;;4992144;28;20254;-52
2021/09/13 08:19:52;;;;;;;6.03;2.80;;;18.30;99.90;;;;;;4997629;28;20292;-53
2021/09/13 08:22:19;;;;;;;9.27;3.07;;;18.30;99.90;;;;;;5000816;28;20638;-49
2021/09/13 08:24:46;;;;;;;6.97;2.63;;;18.00;1.00;;;;;;5002955;28;20640;-53
2021/09/13 08:27:13;;;;;;;6.73;2.47;;;17.90;1.00;;;;;;5001919;28;20953;-51
2021/09/13 08:29:40;;;;;;;5.37;2.80;;;18.00;1.00;;;;;;5009078;28;20300;-51
2021/09/13 08:32:06;;;;;;;7.07;2.67;;;17.70;99.90;;;;;;5000199;28;20515;-52
2021/09/13 08:34:33;;;;;;;6.07;2.77;;;17.60;1.00;;;;;;5005102;28;20305;-50
2021/09/13 08:37:00;;;;;;;7.40;2.90;;;17.70;1.00;;;;;;5005310;28;20259;-51
2021/09/13 08:39:27;;;;;;;3.40;2.07;;;18.10;1.00;;;;;;5001391;28;20652;-50
2021/09/13 08:41:54;;;;;;;3.57;2.13;;;18.50;1.00;;;;;;5003343;28;20223;-51
2021/09/13 08:44:22;;;;;;;5.13;2.23;;;18.80;1.00;;;;;;4996930;28;20231;-51
2021/09/13 08:46:54;;;;;;;5.07;2.10;;;19.00;1.00;;;;;;5001677;28;20450;-51
2021/09/13 08:51:54;;;;;;;3.63;1.30;;;19.60;1.00;;;;;;4996599;28;20240;-51
2021/09/13 08:54:24;;;;;;;2.97;1.23;;;19.60;50.40;;;;;;5002002;28;20237;-50
2021/09/13 08:56:53;;;;;;;1.90;1.20;;;19.40;3.30;;;;;;5003964;28;20266;-51
2021/09/13 08:59:22;;;;;;;2.73;1.17;;;19.60;1.00;;;;;;5001565;28;20209;-51
2021/09/13 09:01:51;;;;;;;3.03;1.50;;;19.60;1.00;;;;;;4997807;28;20564;-51
2021/09/13 09:04:20;;;;;;;3.07;1.57;;;19.40;1.00;;;;;;5001745;28;20566;-50
2021/09/13 09:06:48;;;;;;;3.17;1.40;;;19.20;1.00;;;;;;5012836;28;20279;-51
2021/09/13 09:09:17;;;;;;;2.73;1.77;;;19.00;1.00;;;;;;5000484;28;20239;-50
2021/09/13 09:11:57;;;;;;;2.20;1.70;;;18.80;1.00;;;;;;4999212;28;20235;-51
2021/09/13 09:14:26;;;;;;;4.27;1.80;;;18.50;99.90;;;;;;5003357;28;20766;-50
2021/09/13 09:16:58;;;;;;;4.07;1.37;;;18.40;1.00;;;;;;5000322;28;20329;-50
2021/09/13 09:19:25;;;;;;;5.63;1.40;;;18.60;99.90;;;;;;5003056;28;20664;-51
2021/09/13 09:21:52;;;;;;;3.70;1.50;;;18.60;99.90;;;;;;5003442;28;20229;-50
2021/09/13 09:24:19;;;;;;;5.50;1.30;;;18.70;1.00;;;;;;4998710;28;20311;-50
2021/09/13 09:27:03;;;;;;;4.93;1.13;;;18.80;1.00;;;;;;5003857;28;20292;-50
2021/09/13 09:29:33;;;;;;;2.80;1.17;;;18.80;1.00;;;;;;4995275;28;20256;-50
2021/09/13 09:32:01;;;;;;;2.73;1.00;;;18.70;1.00;;;;;;5001017;28;20225;-49
2021/09/13 09:34:33;;;;;;;4.00;0.90;;;18.70;1.00;;;;;;4997425;28;20731;-50
2021/09/13 09:37:00;;;;;;;3.33;1.20;;;18.80;1.00;;;;;;5002174;28;20213;-50
2021/09/13 09:39:40;;;;;;;6.17;1.70;;;18.70;1.00;;;;;;4995879;28;22254;-50
2021/09/13 09:42:30;;;;;;;3.37;1.53;;;18.90;99.90;;;;;;5000594;28;20206;-50
2021/09/13 09:44:58;;;;;;;5.07;1.50;;;18.80;99.90;;;;;;5004531;28;20330;-51
2021/09/13 09:47:25;;;;;;;3.67;1.10;;;18.70;1.00;;;;;;4999885;28;20326;-51
2021/09/13 09:49:54;;;;;;;6.20;1.30;;;18.80;99.90;;;;;;5002395;28;20256;-51
2021/09/13 09:52:33;;;;;;;2.13;1.30;;;18.90;99.90;;;;;;4997258;28;20225;-50
2021/09/13 09:55:11;;;;;;;3.87;1.60;;;18.80;1.00;;;;;;5002767;28;20988;-50
2021/09/13 09:57:40;;;;;;;4.07;1.50;;;18.70;1.00;;;;;;5004669;28;20221;-51
2021/09/13 10:00:22;;;;;;;2.83;1.70;;;18.80;1.00;;;;;;4998121;28;20308;-50
2021/09/13 10:02:49;;;;;;;2.87;1.60;;;18.90;1.00;;;;;;4994123;28;20284;-50
2021/09/13 10:05:16;;;;;;;4.07;1.40;;;18.90;1.00;;;;;;4998986;28;20573;-50
2021/09/13 10:07:45;;;;;;;1.93;1.20;;;18.70;1.00;;;;;;4998213;28;20241;-51
2021/09/13 10:10:13;;;;;;;3.87;1.20;;;18.80;99.90;;;;;;4999733;28;20351;-51
2021/09/13 10:12:40;;;;;;;1.10;0.90;;;18.60;1.00;;;;;;4998502;28;20670;-51
2021/09/13 10:15:08;;;;;;;2.87;0.93;;;18.90;1.00;;;;;;4990553;28;20262;-51
2021/09/13 10:17:35;;;;;;;1.97;0.93;;;18.90;1.00;;;;;;4990600;28;20287;-50
2021/09/13 10:20:04;;;;;;;2.20;0.70;;;19.00;1.00;;;;;;4999988;28;20206;-51
2021/09/13 10:22:38;;;;;;;1.83;0.80;;;18.90;99.90;;;;;;4996922;28;20244;-51
2021/09/13 10:25:08;;;;;;;7.53;1.60;;;18.90;1.00;;;;;;5000052;28;20244;-50
2021/09/13 10:27:46;;;;;;;1.43;0.80;;;19.00;1.00;;;;;;4991453;28;20384;-51
2021/09/13 10:30:15;;;;;;;3.70;1.43;;;19.10;1.00;;;;;;5000796;28;20690;-51
2021/09/13 10:32:44;;;;;;;2.80;0.90;;;19.10;1.00;;;;;;4993426;28;20262;-51
2021/09/13 10:35:12;;;;;;;2.60;1.10;;;19.00;1.00;;;;;;5006000;28;20248;-50
2021/09/13 10:37:41;;;;;;;4.67;1.40;;;19.10;99.90;;;;;;5000229;28;20204;-51
2021/09/13 10:40:17;;;;;;;2.47;1.03;;;19.10;1.00;;;;;;4993837;28;20206;-51
2021/09/13 10:42:49;;;;;;;1.83;1.40;;;19.20;1.00;;;;;;5000667;28;20728;-51
2021/09/13 10:45:19;;;;;;;2.00;1.20;;;19.30;47.70;;;;;;5002709;28;20236;-51
2021/09/13 10:47:50;;;;;;;2.60;1.10;;;19.30;1.00;;;;;;5006119;28;20201;-50
2021/09/13 10:50:25;;;;;;;3.00;1.00;;;19.50;1.00;;;;;;4996743;28;20541;-51
2021/09/13 10:52:57;;;;;;;4.87;1.83;;;19.50;1.00;;;;;;4998511;28;20315;-51
2021/09/13 10:55:41;;;;;;;3.17;1.23;;;19.30;1.00;;;;;;4996953;28;20276;-50
2021/09/13 10:58:12;;;;;;;2.80;1.27;;;19.50;1.00;;;;;;4996525;28;20242;-50
2021/09/13 11:00:44;;;;;;;4.13;1.13;;;19.80;1.00;;;;;;4994501;28;20194;-51
2021/09/13 11:03:26;;;;;;;3.73;1.33;;;19.90;1.00;;;;;;4994564;28;20630;-51
2021/09/13 11:06:06;;;;;;;4.00;1.70;;;20.10;1.00;;;;;;4992287;28;20223;-51
2021/09/13 11:08:42;;;;;;;2.47;1.00;;;20.00;1.00;;;;;;4996189;28;20676;-51
2021/09/13 11:11:13;;;;;;;2.40;1.03;;;19.80;99.90;;;;;;4998633;28;20671;-51
2021/09/13 11:13:54;;;;;;;2.00;1.10;;;20.00;99.90;;;;;;4994425;28;20257;-51
2021/09/13 11:16:21;;;;;;;2.87;1.03;;;20.20;99.90;;;;;;4995751;28;20374;-51
2021/09/13 11:18:48;;;;;;;2.07;1.33;;;20.30;99.90;;;;;;5000472;28;20265;-51
2021/09/13 11:21:28;;;;;;;2.63;1.20;;;20.40;1.00;;;;;;4998803;28;20316;-51
2021/09/13 11:24:07;;;;;;;3.70;1.20;;;20.20;1.00;;;;;;4996617;28;20240;-51
2021/09/13 11:26:38;;;;;;;2.37;1.10;;;20.20;1.00;;;;;;4997788;28;20269;-50
2021/09/13 11:29:11;;;;;;;2.90;1.20;;;20.40;42.50;;;;;;4995647;28;20371;-50
2021/09/13 11:31:43;;;;;;;2.33;1.20;;;20.50;1.00;;;;;;4998423;28;20302;-51
2021/09/13 11:34:13;;;;;;;1.93;1.10;;;20.90;6.70;;;;;;4995342;28;20516;-51
2021/09/13 11:37:06;;;;;;;2.30;1.10;;;20.90;1.00;;;;;;4998241;28;20254;-51
2021/09/13 11:39:46;;;;;;;2.13;1.33;;;21.10;1.00;;;;;;4995224;28;20193;-51
2021/09/13 11:42:16;;;;;;;3.23;1.50;;;20.80;1.00;;;;;;4990278;28;20315;-51
2021/09/13 11:44:48;;;;;;;2.07;1.50;;;21.20;1.00;;;;;;4994885;28;20330;-51
2021/09/13 11:47:20;;;;;;;5.53;1.60;;;21.20;1.00;;;;;;4997674;28;20283;-51
2021/09/13 11:49:50;;;;;;;5.47;1.80;;;21.10;1.00;;;;;;5000475;28;20202;-51
2021/09/13 11:52:16;;;;;;;3.77;1.93;;;20.90;1.00;;;;;;5001279;28;20294;-51
2021/09/13 11:55:12;;;;;;;4.53;1.73;;;20.70;1.00;;;;;;4991305;28;20430;-51
2021/09/13 11:57:43;;;;;;;3.33;1.43;;;21.00;1.00;;;;;;4998240;28;20236;-51
2021/09/13 12:00:17;;;;;;;3.83;2.07;;;21.60;1.00;;;;;;5000784;28;20314;-51
2021/09/13 12:02:47;;;;;;;2.67;1.50;;;21.50;99.90;;;;;;5006026;28;20291;-51
2021/09/13 12:05:21;;;;;;;2.37;1.80;;;21.40;99.90;;;;;;5011166;28;20252;-51
2021/09/13 12:07:50;;;;;;;3.57;1.50;;;21.30;99.90;;;;;;5001156;28;20234;-51
2021/09/13 12:10:31;;;;;;;2.10;1.63;;;21.40;99.90;;;;;;4994630;28;20705;-51
2021/09/13 12:13:12;;;;;;;2.93;1.80;;;21.60;99.90;;;;;;5011449;28;20223;-51
2021/09/13 12:15:41;;;;;;;3.57;1.80;;;21.10;23.90;;;;;;4997470;28;20322;-51
2021/09/13 12:18:09;;;;;;;3.10;2.10;;;21.00;99.90;;;;;;5000927;28;20986;-50
2021/09/13 12:20:41;;;;;;;2.10;1.60;;;20.90;99.90;;;;;;5007652;28;20236;-51
2021/09/13 12:23:09;;;;;;;2.83;1.60;;;20.80;99.90;;;;;;5003725;28;20756;-51
2021/09/13 12:25:45;;;;;;;2.47;1.43;;;20.80;99.90;;;;;;5005080;28;20692;-50
2021/09/13 12:28:20;;;;;;;3.93;1.60;;;20.90;1.00;;;;;;5006555;28;20716;-51
2021/09/13 12:30:59;;;;;;;2.10;1.80;;;20.90;1.00;;;;;;4998645;28;20685;-51
2021/09/13 12:33:36;;;;;;;4.00;1.80;;;20.80;1.00;;;;;;4992845;28;20235;-51
2021/09/13 12:36:32;;;;;;;3.53;1.70;;;20.90;1.00;;;;;;5003996;28;20193;-50
2021/09/13 12:39:06;;;;;;;4.80;1.80;;;21.00;99.90;;;;;;4991061;28;20297;-51
2021/09/13 12:41:42;;;;;;;2.73;1.80;;;20.90;99.90;;;;;;5003934;28;20282;-50
2021/09/13 12:44:12;;;;;;;3.97;1.80;;;20.50;99.90;;;;;;4995193;28;20201;-51
2021/09/13 12:46:54;;;;;;;3.43;1.77;;;20.80;1.00;;;;;;5014809;28;20208;-51
2021/09/13 12:49:22;;;;;;;2.33;2.10;;;21.20;1.00;;;;;;4995761;28;20408;-51
2021/09/13 12:51:59;;;;;;;2.67;2.03;;;21.30;1.00;;;;;;4999555;28;20212;-51
2021/09/13 12:54:36;;;;;;;4.50;1.97;;;21.40;99.90;;;;;;4999349;28;20247;-51
2021/09/13 12:57:06;;;;;;;4.10;2.23;;;21.90;99.90;;;;;;5002714;28;20319;-51
2021/09/13 12:59:33;;;;;;;4.77;2.07;;;22.10;99.90;;;;;;4993614;28;20217;-50
2021/09/13 13:02:12;;;;;;;3.70;1.97;;;22.10;93.50;;;;;;4999105;28;20200;-51
2021/09/13 13:04:39;;;;;;;4.63;2.60;;;22.20;99.90;;;;;;4996899;28;20575;-51
2021/09/13 13:07:09;;;;;;;3.30;2.17;;;21.90;10.50;;;;;;4997469;28;20301;-51